Atlantic Frontier — VRDJ7 — position and weather

sailwx.info

Track history (hours):
 
Tides and Currents Weather Stations Pressure Air Temp Water Temp Dewpoint Dewpoint Depression Visibility Wind Speed Wind Dir Waves Ship Positions

Atlantic Frontier

Last reported at 2018-Feb-15 02:23 UTC. Time now 2018-Feb-23 12:54 UTC.
Position N 01°13' E 103°30'.
Warning: this ship's position is 8 days out of date.

Length 183 m; draft 7.8 m.

Type: Tanker. MMSI: 477969700.

Date/timePositionNaut miles runAvg speedWind from/ knotsBaromVisibWave heightAir tempDewpointWater temp
2018-Feb-15 02:23N 01°13' E 103°30'614.5
2018-Feb-15 01:59N 01°12' E 103°35'714.5
2018-Feb-15 01:30N 01°09' E 103°42'712.7
2018-Feb-15 00:59N 01°11' E 103°48'3 3.8
2018-Feb-15 00:18N 01°14' E 103°48'0 0.3
2018-Feb-15 00:00N 01°14' E 103°48'0 0.3
2018-Feb-14 23:30N 01°14' E 103°48'0 0.1
2018-Feb-14 22:57N 01°14' E 103°48'0 0.1
2018-Feb-14 22:30N 01°14' E 103°48'0 0.2
2018-Feb-14 22:00N 01°14' E 103°48'0 0.2
2018-Feb-14 21:27N 01°14' E 103°48'0 0.2
2018-Feb-14 21:00N 01°14' E 103°48'0 0.2
2018-Feb-14 20:30N 01°14' E 103°48'0 0.0
2018-Feb-14 20:00N 01°14' E 103°48'0 0.1
2018-Feb-14 19:30N 01°14' E 103°48'0 0.0
2018-Feb-14 19:00N 01°14' E 103°48'0 0.1
2018-Feb-14 18:30N 01°14' E 103°48'0 0.1
2018-Feb-14 18:00N 01°14' E 103°48'0 0.0
2018-Feb-14 17:30N 01°14' E 103°48'0 0.1
2018-Feb-14 17:00N 01°14' E 103°48'0 0.0
2018-Feb-14 16:30N 01°14' E 103°48'0 0.0
2018-Feb-14 16:00N 01°14' E 103°48'0 0.0
2018-Feb-14 15:30N 01°14' E 103°48'0 0.2
2018-Feb-14 14:57N 01°14' E 103°48'0 0.1
2018-Feb-14 14:30N 01°14' E 103°48'0 0.1
2018-Feb-14 14:00N 01°14' E 103°48'0 0.1
2018-Feb-14 13:24N 01°14' E 103°48'0 0.1
2018-Feb-14 13:00N 01°14' E 103°48'0 0.1
2018-Feb-14 12:30N 01°14' E 103°48'0 0.1
2018-Feb-14 12:00N 01°14' E 103°48'0 0.0
2018-Feb-14 11:21N 01°13' E 103°48'0 0.3
2018-Feb-14 10:57N 01°14' E 103°49'0 0.1
2018-Feb-14 10:27N 01°14' E 103°49'0 0.0
2018-Feb-14 09:57N 01°14' E 103°49'0 0.0
2018-Feb-14 09:30N 01°14' E 103°49'0 0.0
2018-Feb-14 08:45N 01°14' E 103°49'0 0.1
2018-Feb-14 08:27N 01°14' E 103°49'0 0.1
2018-Feb-14 08:00N 01°14' E 103°49'0 0.0
2018-Feb-14 07:24N 01°14' E 103°49'0 0.0
2018-Feb-14 06:54N 01°14' E 103°49'0 0.1
2018-Feb-14 06:24N 01°14' E 103°49'0 0.0
2018-Feb-14 05:57N 01°13' E 103°49'0 0.1
2018-Feb-14 05:30N 01°13' E 103°48'0 0.0
2018-Feb-14 04:57N 01°13' E 103°48'0 0.0
2018-Feb-14 04:30N 01°13' E 103°48'0 0.1
2018-Feb-14 04:00N 01°14' E 103°49'0 0.1
2018-Feb-14 03:27N 01°14' E 103°49'0 0.1
2018-Feb-14 03:00N 01°14' E 103°49'0 0.1
2018-Feb-14 02:30N 01°13' E 103°48'0 0.1
2018-Feb-14 02:00N 01°14' E 103°48'0 0.2
2018-Feb-14 01:30N 01°14' E 103°48'0 0.0
2018-Feb-14 01:00N 01°14' E 103°48'0 0.9
2018-Feb-14 00:30N 01°13' E 103°48'1 0.0
2018-Feb-12 01:17N 01°12' E 103°48'0 0.0
2018-Feb-12 00:47N 01°12' E 103°48'0 0.0
2018-Feb-12 00:25N 01°12' E 103°48'1 1.4
2018-Feb-12 00:00N 01°11' E 103°48'1 2.0
2018-Feb-11 23:30N 01°13' E 103°48'5 9.6
2018-Feb-11 23:00N 01°14' E 103°44'3 5.2
2018-Feb-11 22:29N 01°16' E 103°41'0 0.1
2018-Feb-11 21:44N 01°16' E 103°41'0 0.0
2018-Feb-10 11:13N 01°16' E 103°41'0 0.0
2018-Feb-10 10:55N 01°16' E 103°41'0 0.0
2018-Feb-10 10:25N 01°16' E 103°41'0 0.0
2018-Feb-10 10:01N 01°16' E 103°41'1 2.6
2018-Feb-10 09:31N 01°15' E 103°42'5 9.5
2018-Feb-10 09:00N 01°15' E 103°47'3 5.4
2018-Feb-10 08:30N 01°13' E 103°49'0 0.1
2018-Feb-10 07:49N 01°13' E 103°49'0 0.0
2018-Feb-10 07:28N 01°13' E 103°49'0 0.1
2018-Feb-10 06:55N 01°13' E 103°49'0 0.0
2018-Feb-10 06:28N 01°13' E 103°49'0 0.0
2018-Feb-10 05:55N 01°13' E 103°49'0 0.0
2018-Feb-10 05:25N 01°13' E 103°49'0 0.0
2018-Feb-10 04:55N 01°13' E 103°49'0 0.1
2018-Feb-10 04:25N 01°13' E 103°49'3 6.9
2018-Feb-10 03:59N 01°13' E 103°52'613.0
2018-Feb-10 03:30N 01°15' E 103°58'  
Track history (hours):
 
Tides and Currents Weather Stations Pressure Air Temp Water Temp Dewpoint Dewpoint Depression Visibility Wind Speed Wind Dir Waves Ship Positions

Atlantic Frontier

Last reported at 2018-Feb-15 02:23 UTC. Time now 2018-Feb-23 12:54 UTC.
Position N 01°13' E 103°30'.
Warning: this ship's position is 8 days out of date.

Length 183 m; draft 7.8 m.

Type: Tanker. MMSI: 477969700.

Date/timePositionNaut miles runAvg speedWind from/ knotsBaromVisibWave heightAir tempDewpointWater temp
2018-Feb-15 02:23N 01°13' E 103°30'614.5
2018-Feb-15 01:59N 01°12' E 103°35'714.5
2018-Feb-15 01:30N 01°09' E 103°42'712.7
2018-Feb-15 00:59N 01°11' E 103°48'3 3.8
2018-Feb-15 00:18N 01°14' E 103°48'0 0.3
2018-Feb-15 00:00N 01°14' E 103°48'0 0.3
2018-Feb-14 23:30N 01°14' E 103°48'0 0.1
2018-Feb-14 22:57N 01°14' E 103°48'0 0.1
2018-Feb-14 22:30N 01°14' E 103°48'0 0.2
2018-Feb-14 22:00N 01°14' E 103°48'0 0.2
2018-Feb-14 21:27N 01°14' E 103°48'0 0.2
2018-Feb-14 21:00N 01°14' E 103°48'0 0.2
2018-Feb-14 20:30N 01°14' E 103°48'0 0.0
2018-Feb-14 20:00N 01°14' E 103°48'0 0.1
2018-Feb-14 19:30N 01°14' E 103°48'0 0.0
2018-Feb-14 19:00N 01°14' E 103°48'0 0.1
2018-Feb-14 18:30N 01°14' E 103°48'0 0.1
2018-Feb-14 18:00N 01°14' E 103°48'0 0.0
2018-Feb-14 17:30N 01°14' E 103°48'0 0.1
2018-Feb-14 17:00N 01°14' E 103°48'0 0.0
2018-Feb-14 16:30N 01°14' E 103°48'0 0.0
2018-Feb-14 16:00N 01°14' E 103°48'0 0.0
2018-Feb-14 15:30N 01°14' E 103°48'0 0.2
2018-Feb-14 14:57N 01°14' E 103°48'0 0.1
2018-Feb-14 14:30N 01°14' E 103°48'0 0.1
2018-Feb-14 14:00N 01°14' E 103°48'0 0.1
2018-Feb-14 13:24N 01°14' E 103°48'0 0.1
2018-Feb-14 13:00N 01°14' E 103°48'0 0.1
2018-Feb-14 12:30N 01°14' E 103°48'0 0.1
2018-Feb-14 12:00N 01°14' E 103°48'0 0.0
2018-Feb-14 11:21N 01°13' E 103°48'0 0.3
2018-Feb-14 10:57N 01°14' E 103°49'0 0.1
2018-Feb-14 10:27N 01°14' E 103°49'0 0.0
2018-Feb-14 09:57N 01°14' E 103°49'0 0.0
2018-Feb-14 09:30N 01°14' E 103°49'0 0.0
2018-Feb-14 08:45N 01°14' E 103°49'0 0.1
2018-Feb-14 08:27N 01°14' E 103°49'0 0.1
2018-Feb-14 08:00N 01°14' E 103°49'0 0.0
2018-Feb-14 07:24N 01°14' E 103°49'0 0.0
2018-Feb-14 06:54N 01°14' E 103°49'0 0.1
2018-Feb-14 06:24N 01°14' E 103°49'0 0.0
2018-Feb-14 05:57N 01°13' E 103°49'0 0.1
2018-Feb-14 05:30N 01°13' E 103°48'0 0.0
2018-Feb-14 04:57N 01°13' E 103°48'0 0.0
2018-Feb-14 04:30N 01°13' E 103°48'0 0.1
2018-Feb-14 04:00N 01°14' E 103°49'0 0.1
2018-Feb-14 03:27N 01°14' E 103°49'0 0.1
2018-Feb-14 03:00N 01°14' E 103°49'0 0.1
2018-Feb-14 02:30N 01°13' E 103°48'0 0.1
2018-Feb-14 02:00N 01°14' E 103°48'0 0.2
2018-Feb-14 01:30N 01°14' E 103°48'0 0.0
2018-Feb-14 01:00N 01°14' E 103°48'0 0.9
2018-Feb-14 00:30N 01°13' E 103°48'1 0.0
2018-Feb-12 01:17N 01°12' E 103°48'0 0.0
2018-Feb-12 00:47N 01°12' E 103°48'0 0.0
2018-Feb-12 00:25N 01°12' E 103°48'1 1.4
2018-Feb-12 00:00N 01°11' E 103°48'1 2.0
2018-Feb-11 23:30N 01°13' E 103°48'5 9.6
2018-Feb-11 23:00N 01°14' E 103°44'3 5.2
2018-Feb-11 22:29N 01°16' E 103°41'0 0.1
2018-Feb-11 21:44N 01°16' E 103°41'0 0.0
2018-Feb-10 11:13N 01°16' E 103°41'0 0.0
2018-Feb-10 10:55N 01°16' E 103°41'0 0.0
2018-Feb-10 10:25N 01°16' E 103°41'0 0.0
2018-Feb-10 10:01N 01°16' E 103°41'1 2.6
2018-Feb-10 09:31N 01°15' E 103°42'5 9.5
2018-Feb-10 09:00N 01°15' E 103°47'3 5.4
2018-Feb-10 08:30N 01°13' E 103°49'0 0.1
2018-Feb-10 07:49N 01°13' E 103°49'0 0.0
2018-Feb-10 07:28N 01°13' E 103°49'0 0.1
2018-Feb-10 06:55N 01°13' E 103°49'0 0.0
2018-Feb-10 06:28N 01°13' E 103°49'0 0.0
2018-Feb-10 05:55N 01°13' E 103°49'0 0.0
2018-Feb-10 05:25N 01°13' E 103°49'0 0.0
2018-Feb-10 04:55N 01°13' E 103°49'0 0.1
2018-Feb-10 04:25N 01°13' E 103°49'3 6.9
2018-Feb-10 03:59N 01°13' E 103°52'613.0
2018-Feb-10 03:30N 01°15' E 103°58'  

Dump ship's entire track history